sensor_id;sensor_type;location;lat;lon;timestamp;P1;durP1;ratioP1;P2;durP2;ratioP2
42246;SDS011;27913;42.722;23.268;2023-02-15T00:01:07;34.10;;;16.00;;
42246;SDS011;27913;42.722;23.268;2023-02-15T00:03:34;37.42;;;18.58;;
42246;SDS011;27913;42.722;23.268;2023-02-15T00:06:00;33.22;;;13.95;;
42246;SDS011;27913;42.722;23.268;2023-02-15T00:08:25;33.72;;;15.45;;
42246;SDS011;27913;42.722;23.268;2023-02-15T00:10:53;15.93;;;7.05;;
42246;SDS011;27913;42.722;23.268;2023-02-15T00:13:31;28.95;;;13.98;;
42246;SDS011;27913;42.722;23.268;2023-02-15T00:16:04;38.20;;;18.58;;
42246;SDS011;27913;42.722;23.268;2023-02-15T00:18:32;26.20;;;11.15;;
42246;SDS011;27913;42.722;23.268;2023-02-15T00:20:58;34.15;;;16.50;;
42246;SDS011;27913;42.722;23.268;2023-02-15T00:23:28;30.98;;;12.95;;
42246;SDS011;27913;42.722;23.268;2023-02-15T00:26:02;35.35;;;15.90;;
42246;SDS011;27913;42.722;23.268;2023-02-15T00:28:32;29.60;;;14.63;;
42246;SDS011;27913;42.722;23.268;2023-02-15T00:31:07;31.73;;;13.52;;
42246;SDS011;27913;42.722;23.268;2023-02-15T00:33:35;28.92;;;12.75;;
42246;SDS011;27913;42.722;23.268;2023-02-15T00:36:01;34.00;;;14.13;;
42246;SDS011;27913;42.722;23.268;2023-02-15T00:38:28;30.77;;;14.30;;
42246;SDS011;27913;42.722;23.268;2023-02-15T00:40:54;30.27;;;12.65;;
42246;SDS011;27913;42.722;23.268;2023-02-15T00:43:21;20.52;;;9.85;;
42246;SDS011;27913;42.722;23.268;2023-02-15T00:45:47;36.70;;;16.45;;
42246;SDS011;27913;42.722;23.268;2023-02-15T00:48:13;27.63;;;13.65;;
42246;SDS011;27913;42.722;23.268;2023-02-15T00:50:38;31.10;;;14.20;;
42246;SDS011;27913;42.722;23.268;2023-02-15T00:53:04;29.73;;;13.65;;
42246;SDS011;27913;42.722;23.268;2023-02-15T00:55:30;31.35;;;14.02;;
42246;SDS011;27913;42.722;23.268;2023-02-15T00:57:55;35.00;;;13.52;;
42246;SDS011;27913;42.722;23.268;2023-02-15T01:05:16;30.23;;;14.20;;
42246;SDS011;27913;42.722;23.268;2023-02-15T01:07:42;30.10;;;13.88;;
42246;SDS011;27913;42.722;23.268;2023-02-15T01:10:08;31.65;;;14.02;;
42246;SDS011;27913;42.722;23.268;2023-02-15T01:12:33;33.05;;;15.32;;
42246;SDS011;27913;42.722;23.268;2023-02-15T01:14:59;33.15;;;14.45;;
42246;SDS011;27913;42.722;23.268;2023-02-15T01:17:24;32.10;;;14.02;;
42246;SDS011;27913;42.722;23.268;2023-02-15T01:19:50;34.35;;;16.67;;
42246;SDS011;27913;42.722;23.268;2023-02-15T01:22:16;32.13;;;15.30;;
42246;SDS011;27913;42.722;23.268;2023-02-15T01:24:42;35.22;;;17.23;;
42246;SDS011;27913;42.722;23.268;2023-02-15T01:27:08;32.28;;;14.52;;
42246;SDS011;27913;42.722;23.268;2023-02-15T01:29:33;34.10;;;16.85;;
42246;SDS011;27913;42.722;23.268;2023-02-15T01:31:59;18.75;;;8.60;;
42246;SDS011;27913;42.722;23.268;2023-02-15T01:34:24;28.65;;;12.88;;
42246;SDS011;27913;42.722;23.268;2023-02-15T01:36:56;32.55;;;14.05;;
42246;SDS011;27913;42.722;23.268;2023-02-15T01:39:21;28.42;;;12.90;;
42246;SDS011;27913;42.722;23.268;2023-02-15T01:41:47;27.08;;;12.25;;
42246;SDS011;27913;42.722;23.268;2023-02-15T01:47:39;27.60;;;12.48;;
42246;SDS011;27913;42.722;23.268;2023-02-15T01:50:10;24.33;;;12.05;;
42246;SDS011;27913;42.722;23.268;2023-02-15T01:52:38;26.70;;;11.63;;
42246;SDS011;27913;42.722;23.268;2023-02-15T01:55:11;32.47;;;13.77;;
42246;SDS011;27913;42.722;23.268;2023-02-15T01:57:37;28.80;;;12.85;;
42246;SDS011;27913;42.722;23.268;2023-02-15T02:00:05;28.05;;;11.63;;
42246;SDS011;27913;42.722;23.268;2023-02-15T02:02:31;23.52;;;11.52;;
42246;SDS011;27913;42.722;23.268;2023-02-15T02:05:01;29.58;;;12.45;;
42246;SDS011;27913;42.722;23.268;2023-02-15T02:07:31;29.45;;;13.70;;
42246;SDS011;27913;42.722;23.268;2023-02-15T02:10:02;30.48;;;14.90;;
42246;SDS011;27913;42.722;23.268;2023-02-15T02:12:29;25.25;;;11.18;;
42246;SDS011;27913;42.722;23.268;2023-02-15T02:14:56;29.40;;;12.30;;
42246;SDS011;27913;42.722;23.268;2023-02-15T02:31:36;26.75;;;13.32;;
42246;SDS011;27913;42.722;23.268;2023-02-15T02:37:03;27.63;;;12.23;;
42246;SDS011;27913;42.722;23.268;2023-02-15T02:39:51;32.13;;;13.43;;
42246;SDS011;27913;42.722;23.268;2023-02-15T02:43:08;29.70;;;13.88;;
42246;SDS011;27913;42.722;23.268;2023-02-15T02:48:42;28.45;;;13.80;;
42246;SDS011;27913;42.722;23.268;2023-02-15T02:51:08;31.17;;;15.20;;
42246;SDS011;27913;42.722;23.268;2023-02-15T02:53:34;28.88;;;14.30;;
42246;SDS011;27913;42.722;23.268;2023-02-15T02:56:03;31.17;;;15.70;;
42246;SDS011;27913;42.722;23.268;2023-02-15T02:58:36;30.02;;;14.30;;
42246;SDS011;27913;42.722;23.268;2023-02-15T03:01:09;32.00;;;14.13;;
42246;SDS011;27913;42.722;23.268;2023-02-15T03:03:51;28.80;;;13.23;;
42246;SDS011;27913;42.722;23.268;2023-02-15T03:06:28;30.37;;;14.63;;
42246;SDS011;27913;42.722;23.268;2023-02-15T03:12:14;22.45;;;11.05;;
42246;SDS011;27913;42.722;23.268;2023-02-15T03:14:40;26.65;;;12.85;;
42246;SDS011;27913;42.722;23.268;2023-02-15T03:17:09;33.53;;;15.55;;
42246;SDS011;27913;42.722;23.268;2023-02-15T03:19:38;33.15;;;13.98;;
42246;SDS011;27913;42.722;23.268;2023-02-15T03:22:11;30.02;;;12.75;;
42246;SDS011;27913;42.722;23.268;2023-02-15T03:24:50;28.27;;;11.48;;
42246;SDS011;27913;42.722;23.268;2023-02-15T03:27:45;22.83;;;10.25;;
42246;SDS011;27913;42.722;23.268;2023-02-15T03:30:14;28.45;;;14.18;;
42246;SDS011;27913;42.722;23.268;2023-02-15T03:32:43;29.27;;;13.20;;
42246;SDS011;27913;42.722;23.268;2023-02-15T03:35:12;27.30;;;10.85;;
42246;SDS011;27913;42.722;23.268;2023-02-15T03:37:48;29.20;;;13.73;;
42246;SDS011;27913;42.722;23.268;2023-02-15T03:40:32;29.20;;;13.40;;
42246;SDS011;27913;42.722;23.268;2023-02-15T03:46:10;28.85;;;13.45;;
42246;SDS011;27913;42.722;23.268;2023-02-15T03:48:54;23.90;;;12.32;;
42246;SDS011;27913;42.722;23.268;2023-02-15T03:51:28;23.15;;;10.02;;
42246;SDS011;27913;42.722;23.268;2023-02-15T03:56:38;25.08;;;12.23;;
42246;SDS011;27913;42.722;23.268;2023-02-15T03:59:06;29.55;;;14.23;;
42246;SDS011;27913;42.722;23.268;2023-02-15T04:04:27;29.08;;;13.30;;
42246;SDS011;27913;42.722;23.268;2023-02-15T04:06:57;25.00;;;10.95;;
42246;SDS011;27913;42.722;23.268;2023-02-15T04:09:22;22.90;;;9.57;;
42246;SDS011;27913;42.722;23.268;2023-02-15T04:12:06;31.05;;;13.70;;
42246;SDS011;27913;42.722;23.268;2023-02-15T04:14:32;22.85;;;10.70;;
42246;SDS011;27913;42.722;23.268;2023-02-15T04:17:16;26.85;;;13.00;;
42246;SDS011;27913;42.722;23.268;2023-02-15T04:19:41;33.00;;;15.13;;
42246;SDS011;27913;42.722;23.268;2023-02-15T04:22:25;30.83;;;14.45;;
42246;SDS011;27913;42.722;23.268;2023-02-15T04:25:09;27.20;;;13.70;;
42246;SDS011;27913;42.722;23.268;2023-02-15T04:27:38;27.88;;;13.38;;
42246;SDS011;27913;42.722;23.268;2023-02-15T04:30:06;27.48;;;13.63;;
42246;SDS011;27913;42.722;23.268;2023-02-15T04:32:32;17.02;;;7.95;;
42246;SDS011;27913;42.722;23.268;2023-02-15T04:34:58;30.20;;;14.65;;
42246;SDS011;27913;42.722;23.268;2023-02-15T04:37:23;26.75;;;12.60;;
42246;SDS011;27913;42.722;23.268;2023-02-15T04:39:49;27.63;;;13.43;;
42246;SDS011;27913;42.722;23.268;2023-02-15T04:42:15;27.65;;;12.70;;
42246;SDS011;27913;42.722;23.268;2023-02-15T04:44:40;27.15;;;12.40;;
42246;SDS011;27913;42.722;23.268;2023-02-15T04:47:06;30.83;;;16.10;;
42246;SDS011;27913;42.722;23.268;2023-02-15T04:49:35;27.73;;;12.50;;
42246;SDS011;27913;42.722;23.268;2023-02-15T04:52:00;26.30;;;11.43;;
42246;SDS011;27913;42.722;23.268;2023-02-15T04:54:26;27.27;;;13.85;;
42246;SDS011;27913;42.722;23.268;2023-02-15T04:56:51;29.73;;;12.73;;
42246;SDS011;27913;42.722;23.268;2023-02-15T04:59:19;29.27;;;12.68;;
42246;SDS011;27913;42.722;23.268;2023-02-15T05:01:45;23.13;;;11.13;;
42246;SDS011;27913;42.722;23.268;2023-02-15T05:04:10;29.30;;;13.32;;
42246;SDS011;27913;42.722;23.268;2023-02-15T05:06:36;25.58;;;11.77;;
42246;SDS011;27913;42.722;23.268;2023-02-15T05:09:01;27.90;;;12.38;;
42246;SDS011;27913;42.722;23.268;2023-02-15T05:11:27;23.58;;;11.07;;
42246;SDS011;27913;42.722;23.268;2023-02-15T05:13:53;27.48;;;10.65;;
42246;SDS011;27913;42.722;23.268;2023-02-15T05:16:18;24.30;;;10.00;;
42246;SDS011;27913;42.722;23.268;2023-02-15T05:18:44;26.25;;;12.05;;
42246;SDS011;27913;42.722;23.268;2023-02-15T05:21:09;27.70;;;12.93;;
42246;SDS011;27913;42.722;23.268;2023-02-15T05:23:35;32.10;;;12.75;;
42246;SDS011;27913;42.722;23.268;2023-02-15T05:26:01;28.25;;;13.02;;
42246;SDS011;27913;42.722;23.268;2023-02-15T05:28:46;26.58;;;10.95;;
42246;SDS011;27913;42.722;23.268;2023-02-15T05:31:12;24.95;;;12.10;;
42246;SDS011;27913;42.722;23.268;2023-02-15T05:33:40;28.75;;;12.25;;
42246;SDS011;27913;42.722;23.268;2023-02-15T05:36:07;26.33;;;12.20;;
42246;SDS011;27913;42.722;23.268;2023-02-15T05:38:33;27.73;;;12.40;;
42246;SDS011;27913;42.722;23.268;2023-02-15T05:40:59;24.45;;;10.57;;
42246;SDS011;27913;42.722;23.268;2023-02-15T05:43:25;22.90;;;10.15;;
42246;SDS011;27913;42.722;23.268;2023-02-15T05:45:53;24.52;;;10.82;;
42246;SDS011;27913;42.722;23.268;2023-02-15T05:48:21;25.42;;;11.70;;
42246;SDS011;27913;42.722;23.268;2023-02-15T05:50:56;26.92;;;12.23;;
42246;SDS011;27913;42.722;23.268;2023-02-15T05:53:29;18.80;;;8.35;;
42246;SDS011;27913;42.722;23.268;2023-02-15T05:55:56;25.23;;;11.20;;
42246;SDS011;27913;42.722;23.268;2023-02-15T05:58:27;24.65;;;11.68;;
42246;SDS011;27913;42.722;23.268;2023-02-15T06:00:54;26.77;;;12.57;;
42246;SDS011;27913;42.722;23.268;2023-02-15T06:03:19;26.85;;;12.52;;
42246;SDS011;27913;42.722;23.268;2023-02-15T06:05:45;26.55;;;11.82;;
42246;SDS011;27913;42.722;23.268;2023-02-15T06:08:10;29.85;;;13.98;;
42246;SDS011;27913;42.722;23.268;2023-02-15T06:10:36;30.67;;;11.95;;
42246;SDS011;27913;42.722;23.268;2023-02-15T06:13:01;27.45;;;11.93;;
42246;SDS011;27913;42.722;23.268;2023-02-15T06:15:27;26.55;;;10.40;;
42246;SDS011;27913;42.722;23.268;2023-02-15T06:17:52;25.13;;;10.98;;
42246;SDS011;27913;42.722;23.268;2023-02-15T06:20:18;26.23;;;12.50;;
42246;SDS011;27913;42.722;23.268;2023-02-15T06:22:43;23.35;;;10.95;;
42246;SDS011;27913;42.722;23.268;2023-02-15T06:25:09;25.63;;;10.50;;
42246;SDS011;27913;42.722;23.268;2023-02-15T06:27:36;30.38;;;12.50;;
42246;SDS011;27913;42.722;23.268;2023-02-15T06:30:02;27.15;;;13.20;;
42246;SDS011;27913;42.722;23.268;2023-02-15T06:32:29;27.00;;;12.77;;
42246;SDS011;27913;42.722;23.268;2023-02-15T06:34:54;27.67;;;11.32;;
42246;SDS011;27913;42.722;23.268;2023-02-15T06:37:20;25.13;;;11.77;;
42246;SDS011;27913;42.722;23.268;2023-02-15T06:39:45;31.35;;;13.32;;
42246;SDS011;27913;42.722;23.268;2023-02-15T06:42:11;27.67;;;12.48;;
42246;SDS011;27913;42.722;23.268;2023-02-15T06:44:36;28.35;;;12.77;;
42246;SDS011;27913;42.722;23.268;2023-02-15T06:47:02;29.13;;;11.70;;
42246;SDS011;27913;42.722;23.268;2023-02-15T06:49:27;28.27;;;13.10;;
42246;SDS011;27913;42.722;23.268;2023-02-15T06:51:52;23.95;;;11.48;;
42246;SDS011;27913;42.722;23.268;2023-02-15T06:54:18;29.05;;;13.10;;
42246;SDS011;27913;42.722;23.268;2023-02-15T06:56:43;27.45;;;12.13;;
42246;SDS011;27913;42.722;23.268;2023-02-15T06:59:09;20.08;;;9.60;;
42246;SDS011;27913;42.722;23.268;2023-02-15T07:01:34;25.02;;;11.80;;
42246;SDS011;27913;42.722;23.268;2023-02-15T07:04:01;24.13;;;9.48;;
42246;SDS011;27913;42.722;23.268;2023-02-15T07:06:30;28.15;;;12.40;;
42246;SDS011;27913;42.722;23.268;2023-02-15T07:08:56;26.38;;;11.32;;
42246;SDS011;27913;42.722;23.268;2023-02-15T07:11:22;23.52;;;10.48;;
42246;SDS011;27913;42.722;23.268;2023-02-15T07:14:06;26.13;;;12.10;;
42246;SDS011;27913;42.722;23.268;2023-02-15T07:16:31;25.80;;;11.60;;
42246;SDS011;27913;42.722;23.268;2023-02-15T07:18:57;23.10;;;10.20;;
42246;SDS011;27913;42.722;23.268;2023-02-15T07:21:22;22.13;;;10.63;;
42246;SDS011;27913;42.722;23.268;2023-02-15T07:23:48;21.55;;;9.95;;
42246;SDS011;27913;42.722;23.268;2023-02-15T07:26:13;20.42;;;10.02;;
42246;SDS011;27913;42.722;23.268;2023-02-15T07:28:39;17.02;;;7.40;;
42246;SDS011;27913;42.722;23.268;2023-02-15T07:31:05;22.80;;;9.80;;
42246;SDS011;27913;42.722;23.268;2023-02-15T07:33:31;23.92;;;11.38;;
42246;SDS011;27913;42.722;23.268;2023-02-15T07:35:58;21.30;;;8.02;;
42246;SDS011;27913;42.722;23.268;2023-02-15T07:38:26;22.40;;;10.57;;
42246;SDS011;27913;42.722;23.268;2023-02-15T07:40:57;26.05;;;11.60;;
42246;SDS011;27913;42.722;23.268;2023-02-15T07:43:24;26.83;;;12.77;;
42246;SDS011;27913;42.722;23.268;2023-02-15T07:45:49;19.13;;;8.25;;
42246;SDS011;27913;42.722;23.268;2023-02-15T07:48:15;24.90;;;9.15;;
42246;SDS011;27913;42.722;23.268;2023-02-15T07:50:40;21.77;;;10.00;;
42246;SDS011;27913;42.722;23.268;2023-02-15T07:53:06;25.70;;;10.13;;
42246;SDS011;27913;42.722;23.268;2023-02-15T07:55:31;24.27;;;10.30;;
42246;SDS011;27913;42.722;23.268;2023-02-15T07:57:57;13.77;;;6.60;;
42246;SDS011;27913;42.722;23.268;2023-02-15T08:00:22;24.73;;;12.73;;
42246;SDS011;27913;42.722;23.268;2023-02-15T08:02:53;21.83;;;9.30;;
42246;SDS011;27913;42.722;23.268;2023-02-15T08:05:38;14.65;;;6.68;;
42246;SDS011;27913;42.722;23.268;2023-02-15T08:08:06;22.80;;;8.75;;
42246;SDS011;27913;42.722;23.268;2023-02-15T08:10:33;5.93;;;2.90;;
42246;SDS011;27913;42.722;23.268;2023-02-15T08:13:17;20.35;;;9.40;;
42246;SDS011;27913;42.722;23.268;2023-02-15T08:15:51;20.65;;;10.10;;
42246;SDS011;27913;42.722;23.268;2023-02-15T08:18:17;14.57;;;7.25;;
42246;SDS011;27913;42.722;23.268;2023-02-15T08:20:42;6.75;;;2.65;;
42246;SDS011;27913;42.722;23.268;2023-02-15T08:25:38;8.68;;;4.43;;
42246;SDS011;27913;42.722;23.268;2023-02-15T08:28:04;19.50;;;7.65;;
42246;SDS011;27913;42.722;23.268;2023-02-15T08:30:29;19.85;;;8.32;;
42246;SDS011;27913;42.722;23.268;2023-02-15T08:32:55;14.68;;;5.47;;
42246;SDS011;27913;42.722;23.268;2023-02-15T08:35:20;18.92;;;10.23;;
42246;SDS011;27913;42.722;23.268;2023-02-15T08:37:46;24.77;;;9.73;;
42246;SDS011;27913;42.722;23.268;2023-02-15T08:40:11;21.73;;;9.20;;
42246;SDS011;27913;42.722;23.268;2023-02-15T08:42:38;11.80;;;5.90;;
42246;SDS011;27913;42.722;23.268;2023-02-15T08:45:04;25.23;;;10.30;;
42246;SDS011;27913;42.722;23.268;2023-02-15T08:47:29;13.40;;;5.30;;
42246;SDS011;27913;42.722;23.268;2023-02-15T08:49:55;13.95;;;5.88;;
42246;SDS011;27913;42.722;23.268;2023-02-15T08:52:20;18.98;;;8.95;;
42246;SDS011;27913;42.722;23.268;2023-02-15T08:54:48;19.50;;;9.00;;
42246;SDS011;27913;42.722;23.268;2023-02-15T08:57:14;8.15;;;2.97;;
42246;SDS011;27913;42.722;23.268;2023-02-15T08:59:42;16.45;;;6.45;;
42246;SDS011;27913;42.722;23.268;2023-02-15T09:02:09;22.20;;;9.93;;
42246;SDS011;27913;42.722;23.268;2023-02-15T09:04:38;21.10;;;9.63;;
42246;SDS011;27913;42.722;23.268;2023-02-15T09:07:03;21.27;;;9.20;;
42246;SDS011;27913;42.722;23.268;2023-02-15T09:09:29;20.58;;;9.63;;
42246;SDS011;27913;42.722;23.268;2023-02-15T09:11:56;17.35;;;7.95;;
42246;SDS011;27913;42.722;23.268;2023-02-15T09:14:21;8.00;;;3.35;;
42246;SDS011;27913;42.722;23.268;2023-02-15T09:16:48;5.20;;;2.55;;
42246;SDS011;27913;42.722;23.268;2023-02-15T09:19:16;20.00;;;9.80;;
42246;SDS011;27913;42.722;23.268;2023-02-15T09:21:43;20.27;;;10.10;;
42246;SDS011;27913;42.722;23.268;2023-02-15T09:24:09;20.95;;;8.38;;
42246;SDS011;27913;42.722;23.268;2023-02-15T09:26:37;24.17;;;11.98;;
42246;SDS011;27913;42.722;23.268;2023-02-15T09:29:05;17.27;;;9.35;;
42246;SDS011;27913;42.722;23.268;2023-02-15T09:31:41;27.25;;;11.57;;
42246;SDS011;27913;42.722;23.268;2023-02-15T09:34:10;21.45;;;8.38;;
42246;SDS011;27913;42.722;23.268;2023-02-15T09:36:38;15.10;;;7.10;;
42246;SDS011;27913;42.722;23.268;2023-02-15T09:39:14;19.70;;;9.25;;
42246;SDS011;27913;42.722;23.268;2023-02-15T09:49:44;18.92;;;8.63;;
42246;SDS011;27913;42.722;23.268;2023-02-15T09:57:53;18.33;;;9.05;;
42246;SDS011;27913;42.722;23.268;2023-02-15T10:08:11;22.20;;;11.77;;
42246;SDS011;27913;42.722;23.268;2023-02-15T10:26:56;19.33;;;9.00;;
42246;SDS011;27913;42.722;23.268;2023-02-15T10:29:37;21.23;;;11.75;;
42246;SDS011;27913;42.722;23.268;2023-02-15T10:37:32;19.35;;;9.63;;
42246;SDS011;27913;42.722;23.268;2023-02-15T10:46:05;23.25;;;12.60;;
42246;SDS011;27913;42.722;23.268;2023-02-15T10:54:16;20.40;;;9.90;;
42246;SDS011;27913;42.722;23.268;2023-02-15T10:59:59;24.55;;;10.55;;
42246;SDS011;27913;42.722;23.268;2023-02-15T11:07:35;17.80;;;8.50;;
42246;SDS011;27913;42.722;23.268;2023-02-15T11:13:02;22.90;;;12.15;;
42246;SDS011;27913;42.722;23.268;2023-02-15T11:15:35;18.85;;;9.30;;
42246;SDS011;27913;42.722;23.268;2023-02-15T11:20:45;23.13;;;13.10;;
42246;SDS011;27913;42.722;23.268;2023-02-15T11:23:17;20.35;;;11.23;;
42246;SDS011;27913;42.722;23.268;2023-02-15T11:25:52;20.05;;;8.68;;
42246;SDS011;27913;42.722;23.268;2023-02-15T11:28:27;24.92;;;10.75;;
42246;SDS011;27913;42.722;23.268;2023-02-15T11:30:58;25.35;;;13.30;;
42246;SDS011;27913;42.722;23.268;2023-02-15T11:33:29;25.17;;;14.25;;
42246;SDS011;27913;42.722;23.268;2023-02-15T11:36:05;16.20;;;8.20;;
42246;SDS011;27913;42.722;23.268;2023-02-15T11:38:36;24.75;;;12.15;;
42246;SDS011;27913;42.722;23.268;2023-02-15T11:41:11;26.73;;;11.32;;
42246;SDS011;27913;42.722;23.268;2023-02-15T11:43:43;18.95;;;8.30;;
42246;SDS011;27913;42.722;23.268;2023-02-15T11:46:16;21.92;;;10.55;;
42246;SDS011;27913;42.722;23.268;2023-02-15T11:48:43;17.75;;;8.90;;
42246;SDS011;27913;42.722;23.268;2023-02-15T11:51:11;21.05;;;9.48;;
42246;SDS011;27913;42.722;23.268;2023-02-15T11:53:40;19.17;;;9.52;;
42246;SDS011;27913;42.722;23.268;2023-02-15T11:56:15;14.80;;;7.68;;
42246;SDS011;27913;42.722;23.268;2023-02-15T11:58:46;9.10;;;4.78;;
42246;SDS011;27913;42.722;23.268;2023-02-15T12:01:34;14.90;;;7.93;;
42246;SDS011;27913;42.722;23.268;2023-02-15T12:06:57;20.83;;;10.25;;
42246;SDS011;27913;42.722;23.268;2023-02-15T12:12:23;20.27;;;10.23;;
42246;SDS011;27913;42.722;23.268;2023-02-15T12:14:55;24.05;;;12.85;;
42246;SDS011;27913;42.722;23.268;2023-02-15T12:17:32;12.48;;;5.07;;
42246;SDS011;27913;42.722;23.268;2023-02-15T12:20:04;20.52;;;9.63;;
42246;SDS011;27913;42.722;23.268;2023-02-15T12:22:46;20.17;;;10.55;;
42246;SDS011;27913;42.722;23.268;2023-02-15T12:25:26;24.30;;;13.93;;
42246;SDS011;27913;42.722;23.268;2023-02-15T12:30:58;21.45;;;12.95;;
42246;SDS011;27913;42.722;23.268;2023-02-15T12:33:36;21.17;;;9.60;;
42246;SDS011;27913;42.722;23.268;2023-02-15T12:36:11;17.33;;;8.25;;
42246;SDS011;27913;42.722;23.268;2023-02-15T12:44:22;17.13;;;7.88;;
42246;SDS011;27913;42.722;23.268;2023-02-15T12:47:02;21.08;;;9.10;;
42246;SDS011;27913;42.722;23.268;2023-02-15T12:49:33;19.05;;;9.52;;
42246;SDS011;27913;42.722;23.268;2023-02-15T12:52:01;20.05;;;10.10;;
42246;SDS011;27913;42.722;23.268;2023-02-15T12:54:38;24.50;;;10.93;;
42246;SDS011;27913;42.722;23.268;2023-02-15T13:02:38;16.65;;;7.15;;
42246;SDS011;27913;42.722;23.268;2023-02-15T13:07:38;15.73;;;7.10;;
42246;SDS011;27913;42.722;23.268;2023-02-15T13:10:19;19.95;;;7.85;;
42246;SDS011;27913;42.722;23.268;2023-02-15T13:12:49;13.32;;;6.10;;
42246;SDS011;27913;42.722;23.268;2023-02-15T13:17:52;20.52;;;10.38;;
42246;SDS011;27913;42.722;23.268;2023-02-15T13:20:20;23.25;;;12.13;;
42246;SDS011;27913;42.722;23.268;2023-02-15T13:22:50;18.05;;;8.30;;
42246;SDS011;27913;42.722;23.268;2023-02-15T13:25:23;20.70;;;11.80;;
42246;SDS011;27913;42.722;23.268;2023-02-15T13:27:52;24.70;;;10.38;;
42246;SDS011;27913;42.722;23.268;2023-02-15T13:30:32;21.65;;;10.88;;
42246;SDS011;27913;42.722;23.268;2023-02-15T13:33:10;14.63;;;5.97;;
42246;SDS011;27913;42.722;23.268;2023-02-15T13:35:42;20.00;;;9.65;;
42246;SDS011;27913;42.722;23.268;2023-02-15T13:41:53;14.82;;;7.03;;
42246;SDS011;27913;42.722;23.268;2023-02-15T13:44:12;12.15;;;5.55;;
42246;SDS011;27913;42.722;23.268;2023-02-15T13:52:27;16.38;;;8.13;;
42246;SDS011;27913;42.722;23.268;2023-02-15T14:00:22;22.70;;;11.55;;
42246;SDS011;27913;42.722;23.268;2023-02-15T14:02:59;25.40;;;9.88;;
42246;SDS011;27913;42.722;23.268;2023-02-15T14:16:45;19.00;;;9.05;;
42246;SDS011;27913;42.722;23.268;2023-02-15T14:30:12;14.23;;;6.90;;
42246;SDS011;27913;42.722;23.268;2023-02-15T14:32:45;17.13;;;6.22;;
42246;SDS011;27913;42.722;23.268;2023-02-15T14:35:18;21.90;;;9.95;;
42246;SDS011;27913;42.722;23.268;2023-02-15T14:46:16;22.52;;;10.30;;
42246;SDS011;27913;42.722;23.268;2023-02-15T14:48:57;17.75;;;9.70;;
42246;SDS011;27913;42.722;23.268;2023-02-15T14:54:11;17.67;;;8.40;;
42246;SDS011;27913;42.722;23.268;2023-02-15T14:59:26;16.52;;;7.65;;
42246;SDS011;27913;42.722;23.268;2023-02-15T15:04:34;17.92;;;8.93;;
42246;SDS011;27913;42.722;23.268;2023-02-15T15:09:34;26.33;;;11.52;;
42246;SDS011;27913;42.722;23.268;2023-02-15T15:14:46;20.85;;;9.10;;
42246;SDS011;27913;42.722;23.268;2023-02-15T15:17:14;25.13;;;11.98;;
42246;SDS011;27913;42.722;23.268;2023-02-15T15:20:02;22.50;;;8.10;;
42246;SDS011;27913;42.722;23.268;2023-02-15T15:22:38;25.42;;;11.90;;
42246;SDS011;27913;42.722;23.268;2023-02-15T15:27:49;24.20;;;11.73;;
42246;SDS011;27913;42.722;23.268;2023-02-15T15:41:08;26.03;;;12.90;;
42246;SDS011;27913;42.722;23.268;2023-02-15T15:46:57;24.00;;;12.57;;
42246;SDS011;27913;42.722;23.268;2023-02-15T15:49:43;24.23;;;10.90;;
42246;SDS011;27913;42.722;23.268;2023-02-15T15:52:16;26.90;;;12.48;;
42246;SDS011;27913;42.722;23.268;2023-02-15T15:54:44;23.42;;;10.75;;
42246;SDS011;27913;42.722;23.268;2023-02-15T15:57:26;23.98;;;12.40;;
42246;SDS011;27913;42.722;23.268;2023-02-15T16:00:00;21.52;;;9.75;;
42246;SDS011;27913;42.722;23.268;2023-02-15T16:02:26;23.83;;;12.45;;
42246;SDS011;27913;42.722;23.268;2023-02-15T16:04:52;20.48;;;9.32;;
42246;SDS011;27913;42.722;23.268;2023-02-15T16:12:36;27.42;;;11.35;;
42246;SDS011;27913;42.722;23.268;2023-02-15T16:17:44;18.30;;;8.75;;
42246;SDS011;27913;42.722;23.268;2023-02-15T16:20:18;22.80;;;10.63;;
42246;SDS011;27913;42.722;23.268;2023-02-15T16:28:31;23.30;;;11.18;;
42246;SDS011;27913;42.722;23.268;2023-02-15T16:31:13;24.60;;;10.20;;
42246;SDS011;27913;42.722;23.268;2023-02-15T16:33:41;23.88;;;11.05;;
42246;SDS011;27913;42.722;23.268;2023-02-15T16:36:12;23.98;;;11.05;;
42246;SDS011;27913;42.722;23.268;2023-02-15T16:41:24;30.25;;;14.20;;
42246;SDS011;27913;42.722;23.268;2023-02-15T16:43:55;25.73;;;10.68;;
42246;SDS011;27913;42.722;23.268;2023-02-15T16:46:31;21.85;;;10.18;;
42246;SDS011;27913;42.722;23.268;2023-02-15T16:49:01;27.52;;;13.15;;
42246;SDS011;27913;42.722;23.268;2023-02-15T16:51:31;26.08;;;11.10;;
42246;SDS011;27913;42.722;23.268;2023-02-15T16:54:00;28.63;;;12.25;;
42246;SDS011;27913;42.722;23.268;2023-02-15T16:56:32;28.65;;;12.27;;
42246;SDS011;27913;42.722;23.268;2023-02-15T16:58:58;22.77;;;11.32;;
42246;SDS011;27913;42.722;23.268;2023-02-15T17:01:29;23.45;;;10.45;;
42246;SDS011;27913;42.722;23.268;2023-02-15T17:09:51;28.25;;;10.90;;
42246;SDS011;27913;42.722;23.268;2023-02-15T17:17:56;27.02;;;12.93;;
42246;SDS011;27913;42.722;23.268;2023-02-15T17:20:27;29.77;;;15.88;;
42246;SDS011;27913;42.722;23.268;2023-02-15T17:22:53;26.92;;;12.45;;
42246;SDS011;27913;42.722;23.268;2023-02-15T17:25:21;30.33;;;12.10;;
42246;SDS011;27913;42.722;23.268;2023-02-15T17:27:55;27.30;;;13.20;;
42246;SDS011;27913;42.722;23.268;2023-02-15T17:30:39;29.30;;;13.43;;
42246;SDS011;27913;42.722;23.268;2023-02-15T17:33:05;28.63;;;12.63;;
42246;SDS011;27913;42.722;23.268;2023-02-15T17:36:03;25.02;;;11.32;;
42246;SDS011;27913;42.722;23.268;2023-02-15T17:38:30;30.95;;;13.88;;
42246;SDS011;27913;42.722;23.268;2023-02-15T17:40:56;30.50;;;14.05;;
42246;SDS011;27913;42.722;23.268;2023-02-15T17:43:23;22.60;;;9.80;;
42246;SDS011;27913;42.722;23.268;2023-02-15T17:45:49;32.78;;;13.25;;
42246;SDS011;27913;42.722;23.268;2023-02-15T17:51:05;31.33;;;14.63;;
42246;SDS011;27913;42.722;23.268;2023-02-15T17:53:36;28.58;;;13.52;;
42246;SDS011;27913;42.722;23.268;2023-02-15T17:56:05;28.08;;;13.93;;
42246;SDS011;27913;42.722;23.268;2023-02-15T17:58:35;30.40;;;12.18;;
42246;SDS011;27913;42.722;23.268;2023-02-15T18:01:12;28.60;;;12.55;;
42246;SDS011;27913;42.722;23.268;2023-02-15T18:04:04;28.25;;;13.32;;
42246;SDS011;27913;42.722;23.268;2023-02-15T18:06:52;21.45;;;9.50;;
42246;SDS011;27913;42.722;23.268;2023-02-15T18:09:35;22.73;;;10.25;;
42246;SDS011;27913;42.722;23.268;2023-02-15T18:12:21;25.15;;;11.68;;
42246;SDS011;27913;42.722;23.268;2023-02-15T18:14:47;22.92;;;10.25;;
42246;SDS011;27913;42.722;23.268;2023-02-15T18:17:13;22.27;;;10.30;;
42246;SDS011;27913;42.722;23.268;2023-02-15T18:19:41;22.70;;;9.77;;
42246;SDS011;27913;42.722;23.268;2023-02-15T18:22:11;28.27;;;13.00;;
42246;SDS011;27913;42.722;23.268;2023-02-15T18:24:38;21.95;;;8.50;;
42246;SDS011;27913;42.722;23.268;2023-02-15T18:27:04;26.45;;;10.45;;
42246;SDS011;27913;42.722;23.268;2023-02-15T18:29:33;21.50;;;9.23;;
42246;SDS011;27913;42.722;23.268;2023-02-15T18:31:58;25.65;;;10.95;;